Main page
METAR-TAF:

METAR-TAF

Airports :

Svalbard Airport. Longyear

Longyearbyen, Norway

latitude: 78-15N, longitude: 015-28E, elevation: 2 m

Current weather observation

The report was made 18 minutes ago, at 20:50 UTC
Wind 11 kt from the East/Southeast
Temperature -19°C
Humidity 64%
Pressure 1005 hPa
Visibility 10 km or more
no clouds below 1500 m and no cumulonimbus

METAR: ENSB 102050Z 11011KT CAVOK M19/M24 Q1005 RMK WIND 1400FT 02004KT

Time: 22:08 (21:08 UTC)

Forecast

Forecast valid from 10 at 18 UTC to 11 at 18 UTC
Wind 12 kt from the East/Southeast
Visibility 10 km or more
Few clouds at a height of 1000 ft
Broken clouds at a height of 3000 ft
Becoming
from 11 at 09 UTC to 11 at 12 UTC
Wind 22 kt from the East/Southeast
Temporary
from 11 at 15 UTC to 11 at 18 UTC
Wind 25 kt from the East/Southeast with gusts up to 35 kt
Visibility: 4000 m
at a height of 1200 ft
light snow, Blowing snow

TAF: ENSB 1018/1118 12012KT 9999 FEW010 BKN030 BECMG 1109/1112 12022KT TEMPO 1115/1118 12025G35KT 4000 -SN BLSN VV012

Weather observations and forecasts of more than 4000 airports (METAR and TAF reports).

The available stations are represented by yellow and red dots on the map.

Hover mouse over dot to see the name of the station.

Then click to see weather observations and forecasts.

To change the map : click on the green buttons with a black cross to zoom in, on the green button with a dash to zoom out, or on the green arrows for adjacent maps.


METAR-TAF: